Cavern City Air Terminal
KCNM : now visible

Airfield :











YOU CAN JOIN US ON...

 
LOGIN :

Register | Disclaimer

   EN    FR    IT 

 









Legend :    VFR   Marginal VFR   IFR   Intensive IFR   Very Intensive IFR
Visi :
Ceiling :
>= 8 km
>= 3000ft
5 to 8 km
1000 to 3000 ft
1500m to 5 km
500 to 1000 ft
800 to 1500m
200 to 500 ft
< 800m
< 200 ft
Symbols :   Thunderstorms  Fog  Heavy snow  Heavy precipitations  Wind > 20 kt






- Airport Elevation : 3295 ft
- IATA code : CNM


KCNM - Cavern City Air Terminal

CURRENT METAR :
  • 291753Z AUTO 17008KT 10SM CLR 28/09 A3025 RMK AO2 SLP188 T02780089 10283 20150 58014

EXPIRED METARs :
  • 291653Z AUTO 16007KT 120V200 10SM CLR 26/10 A3027 RMK AO2 SLP199 T02560100
  • 291553Z AUTO 15010KT 10SM CLR 25/10 A3028 RMK AO2 SLP201 T02500100
  • 291453Z AUTO 14005KT 10SM CLR 23/08 A3029 RMK AO2 SLP204 T02280083 51014

TAF KCNM
Valid from the 29 at 18:00 until the 30 at 18:00 UTC


291721Z 2918/3018 16009KT P6SM SKC
KZAB FIR / North America



MET'MAP, your aeronautical weather chart ! - Copyright ORBIFLY December 2007 - Disclaimer

ORBIFLY MET'MAP TEAM :

Programming & Development : Alexandra Zaïnal
Concept & original design : Baudouin d'Aumeries
Assistance for programming : Marc-Olivier Méhu
Technical & hardware support : Manuel Goepfert

Contact : metmap@orbifly.com




SOURCES & CREDITS :

   NOAA       Earth
Advisory